Terminal Aerodrome Forecast
Issued by NWS

Home | Current Version | Previous Version | Text Only | Print | Product List | Glossary On
Versions: 1 2 3 4 5 6 7 8 9 10 11 12 13 14
803
FTUS46 KSEW 230535
TAFHQM
TAF
KHQM 230535Z 2306/2406 17008KT P6SM VCSH SCT040 BKN060
     FM230900 18008KT P6SM SCT020 BKN070
      TEMPO 2310/2314 BKN020 OVC040
     FM231600 09010KT P6SM VCSH SCT020 BKN030 OVC050
     FM232000 10014G24KT 6SM -RA BKN035 OVC050=

USA.gov is the U.S. government's official web portal to all federal, state and local government web resources and services.